createdAt,value
2023-04-17T00:00:23.150Z,0.85
2023-04-17T00:02:51.599Z,1.30
2023-04-17T00:05:23.292Z,1.30
2023-04-17T00:10:19.678Z,1.35
2023-04-17T00:12:47.881Z,1.30
2023-04-17T00:15:17.506Z,0.77
2023-04-17T00:17:45.782Z,0.82
2023-04-17T00:20:14.185Z,1.20
2023-04-17T00:22:42.623Z,1.95
2023-04-17T00:25:13.099Z,1.50
2023-04-17T00:27:41.403Z,0.95
2023-04-17T00:30:10.851Z,1.20
2023-04-17T00:32:40.440Z,1.17
2023-04-17T00:35:09.434Z,0.85
2023-04-17T00:37:37.650Z,0.70
2023-04-17T00:40:06.536Z,0.90
2023-04-17T00:42:34.742Z,1.00
2023-04-17T00:45:04.376Z,0.90
2023-04-17T00:47:32.930Z,0.88
2023-04-17T00:50:02.756Z,0.88
2023-04-17T00:52:31.523Z,0.80
2023-04-17T00:55:00.556Z,0.77
2023-04-17T00:57:29.136Z,0.60
2023-04-17T00:59:58.678Z,0.75
2023-04-17T01:02:27.478Z,0.90
2023-04-17T01:04:55.796Z,1.45
2023-04-17T01:07:26.371Z,1.20
2023-04-17T01:09:55.569Z,0.40
2023-04-17T01:12:25.323Z,0.63
2023-04-17T01:14:54.181Z,0.30
2023-04-17T01:17:22.782Z,0.30
2023-04-17T01:19:51.663Z,0.20
2023-04-17T01:22:20.862Z,0.20
2023-04-17T01:24:50.991Z,0.20
2023-04-17T01:27:22.528Z,0.30
2023-04-17T01:32:19.628Z,0.10
2023-04-17T01:34:47.849Z,0.15
2023-04-17T01:37:16.026Z,0.20
2023-04-17T01:39:44.375Z,0.20
2023-04-17T01:42:13.982Z,0.60
2023-04-17T01:44:42.218Z,0.50
2023-04-17T01:47:10.476Z,0.80
2023-04-17T01:49:38.683Z,0.85
2023-04-17T01:52:07.197Z,1.35
2023-04-17T01:54:35.572Z,1.08
2023-04-17T01:57:03.854Z,1.20
2023-04-17T01:59:33.484Z,1.38
2023-04-17T02:02:01.757Z,0.77
2023-04-17T02:04:30.248Z,0.70
2023-04-17T02:06:58.506Z,0.68
2023-04-17T02:09:27.200Z,0.57
2023-04-17T02:11:56.304Z,0.68
2023-04-17T02:14:24.792Z,0.50
2023-04-17T02:16:54.393Z,0.60
2023-04-17T02:19:22.908Z,0.40
2023-04-17T02:21:51.186Z,1.20
2023-04-17T02:24:19.357Z,1.42
2023-04-17T02:26:47.753Z,1.35
2023-04-17T02:29:15.953Z,1.60
2023-04-17T02:31:44.214Z,1.80
2023-04-17T02:34:13.913Z,1.50
2023-04-17T02:36:42.232Z,1.38
2023-04-17T02:39:10.554Z,1.70
2023-04-17T02:41:38.964Z,1.25
2023-04-17T02:44:07.189Z,1.38
2023-04-17T02:46:35.458Z,1.33
2023-04-17T02:49:03.797Z,0.90
2023-04-17T02:51:33.348Z,1.40
2023-04-17T02:54:01.652Z,1.20
2023-04-17T02:56:29.861Z,1.50
2023-04-17T02:58:58.174Z,1.50
2023-04-17T03:01:26.430Z,1.67
2023-04-17T03:03:55.063Z,1.55
2023-04-17T03:06:24.077Z,1.40
2023-04-17T03:08:53.898Z,1.63
2023-04-17T03:11:22.110Z,1.45
2023-04-17T03:13:50.300Z,1.40
2023-04-17T03:16:18.571Z,1.58
2023-04-17T03:18:46.805Z,1.52
2023-04-17T03:21:14.999Z,1.60
2023-04-17T03:23:43.863Z,1.50
2023-04-17T03:26:13.484Z,1.75
2023-04-17T03:28:41.633Z,1.67
2023-04-17T03:31:09.863Z,1.80
2023-04-17T03:33:38.808Z,1.98
2023-04-17T03:36:07.711Z,2.10
2023-04-17T03:38:37.595Z,1.92
2023-04-17T03:41:05.996Z,1.98
2023-04-17T03:43:35.578Z,1.95
2023-04-17T03:46:03.849Z,2.20
2023-04-17T03:48:32.519Z,2.10
2023-04-17T03:51:00.758Z,1.83
2023-04-17T03:53:30.956Z,2.00
2023-04-17T03:55:59.245Z,2.13
2023-04-17T03:58:27.473Z,2.60
2023-04-17T04:00:58.567Z,2.55
2023-04-17T04:03:28.072Z,2.50
2023-04-17T04:05:56.795Z,2.80
2023-04-17T04:08:25.012Z,1.52
2023-04-17T04:10:53.212Z,2.00
2023-04-17T04:13:21.427Z,2.60
2023-04-17T04:15:49.887Z,2.35
2023-04-17T04:18:19.552Z,2.63
2023-04-17T04:20:48.411Z,3.22
2023-04-17T04:23:17.102Z,3.40
2023-04-17T04:25:46.002Z,2.70
2023-04-17T04:28:14.362Z,3.03
2023-04-17T04:30:46.386Z,3.03
2023-04-17T04:33:14.923Z,2.97
2023-04-17T04:35:47.725Z,2.80
2023-04-17T04:38:17.250Z,2.38
2023-04-17T04:40:52.429Z,1.98
2023-04-17T04:43:22.498Z,1.20
2023-04-17T04:45:50.843Z,0.90
2023-04-17T04:48:19.061Z,0.88
2023-04-17T04:50:48.726Z,1.10
2023-04-17T04:53:16.986Z,0.73
2023-04-17T04:55:45.266Z,1.45
2023-04-17T04:58:13.825Z,0.77
2023-04-17T05:00:42.077Z,0.80
2023-04-17T05:03:13.216Z,1.00
2023-04-17T05:05:43.401Z,0.73
2023-04-17T05:08:13.907Z,0.70
2023-04-17T05:10:42.160Z,0.70
2023-04-17T05:13:10.376Z,0.60
2023-04-17T05:15:38.566Z,0.60
2023-04-17T05:18:06.782Z,0.98
2023-04-17T05:20:35.065Z,0.90
2023-04-17T05:23:03.281Z,1.10
2023-04-17T05:25:33.103Z,0.90
2023-04-17T05:28:01.286Z,0.90
2023-04-17T05:30:29.617Z,0.80
2023-04-17T05:32:58.761Z,0.75
2023-04-17T05:35:27.306Z,0.90
2023-04-17T05:37:56.179Z,1.02
2023-04-17T05:40:24.496Z,1.80
2023-04-17T05:42:54.090Z,0.90
2023-04-17T05:45:24.132Z,0.93
2023-04-17T05:47:54.007Z,0.98
2023-04-17T05:50:22.234Z,1.17
2023-04-17T05:52:50.465Z,0.93
2023-04-17T05:55:20.135Z,0.90
2023-04-17T05:57:48.738Z,0.90
2023-04-17T06:00:18.961Z,0.93
2023-04-17T06:02:47.283Z,0.80
2023-04-17T06:05:16.613Z,1.92
2023-04-17T06:07:45.019Z,1.90
2023-04-17T06:10:13.289Z,1.10
2023-04-17T06:12:41.912Z,0.98
2023-04-17T06:15:11.084Z,0.80
2023-04-17T06:17:41.833Z,1.30
2023-04-17T06:20:11.327Z,0.90
2023-04-17T06:22:39.884Z,1.50
2023-04-17T06:25:09.187Z,1.10
2023-04-17T06:27:37.495Z,1.00
2023-04-17T06:30:06.797Z,0.95
2023-04-17T06:32:35.023Z,0.70
2023-04-17T06:35:04.919Z,0.90
2023-04-17T06:37:33.149Z,1.10
2023-04-17T06:40:01.499Z,0.90
2023-04-17T06:42:29.747Z,1.02
2023-04-17T06:44:57.917Z,0.90
2023-04-17T06:47:26.260Z,0.95
2023-04-17T06:49:54.430Z,1.50
2023-04-17T06:52:23.997Z,1.20
2023-04-17T06:54:52.199Z,1.40
2023-04-17T06:57:20.376Z,1.40
2023-04-17T06:59:48.613Z,1.27
2023-04-17T07:02:16.960Z,1.40
2023-04-17T07:04:45.368Z,1.30
2023-04-17T07:07:13.699Z,1.40
2023-04-17T07:09:44.153Z,1.13
2023-04-17T07:12:12.466Z,1.02
2023-04-17T07:14:40.770Z,0.70
2023-04-17T07:17:09.033Z,0.57
2023-04-17T07:19:38.026Z,1.38
2023-04-17T07:22:06.655Z,1.40
2023-04-17T07:24:35.148Z,1.23
2023-04-17T07:27:06.769Z,1.25
2023-04-17T07:32:04.354Z,1.00
2023-04-17T07:34:34.375Z,1.30
2023-04-17T07:37:02.777Z,1.10
2023-04-17T07:39:31.755Z,1.30
2023-04-17T07:41:59.971Z,1.13
2023-04-17T07:44:29.501Z,0.70
2023-04-17T07:46:57.691Z,0.60
2023-04-17T07:49:26.008Z,0.80
2023-04-17T07:51:55.173Z,0.80
2023-04-17T07:54:23.346Z,0.90
2023-04-17T07:56:51.575Z,0.63
2023-04-17T07:59:19.707Z,0.65
2023-04-17T08:01:49.730Z,0.80
2023-04-17T08:04:18.019Z,1.20
2023-04-17T08:06:46.380Z,1.00
2023-04-17T08:09:14.688Z,0.82
2023-04-17T08:11:56.114Z,1.02
2023-04-17T08:14:25.698Z,1.00
2023-04-17T08:16:55.709Z,1.00
2023-04-17T08:19:23.881Z,1.35
2023-04-17T08:21:52.819Z,1.10
2023-04-17T08:24:21.080Z,1.20
2023-04-17T08:26:49.302Z,1.13
2023-04-17T08:29:17.530Z,1.13
2023-04-17T08:31:45.729Z,1.17
2023-04-17T08:34:15.804Z,0.90
2023-04-17T08:36:44.188Z,0.82
2023-04-17T08:39:12.846Z,1.20
2023-04-17T08:41:49.263Z,1.10
2023-04-17T08:44:20.838Z,1.00
2023-04-17T08:46:49.876Z,1.27
2023-04-17T08:49:19.584Z,1.27
2023-04-17T08:51:48.124Z,1.13
2023-04-17T08:54:16.278Z,1.30
2023-04-17T08:56:44.445Z,1.10
2023-04-17T08:59:12.862Z,1.40
2023-04-17T09:01:43.499Z,1.05
2023-04-17T09:04:12.003Z,1.20
2023-04-17T09:06:59.810Z,1.08
2023-04-17T09:09:47.024Z,1.20
2023-04-17T09:12:15.526Z,1.20
2023-04-17T09:14:43.761Z,1.48
2023-04-17T09:17:11.962Z,1.30
2023-04-17T09:20:00.450Z,1.23
2023-04-17T09:22:30.021Z,1.20
2023-04-17T09:24:58.529Z,1.30
2023-04-17T09:27:27.899Z,1.10
2023-04-17T09:30:02.609Z,1.20
2023-04-17T09:32:32.495Z,1.45
2023-04-17T09:35:02.160Z,1.10
2023-04-17T09:37:52.078Z,1.00
2023-04-17T09:40:21.665Z,1.00
2023-04-17T09:43:01.122Z,1.30
2023-04-17T09:45:33.488Z,0.90
2023-04-17T09:48:02.097Z,0.70
2023-04-17T09:50:31.288Z,0.90
2023-04-17T09:53:01.430Z,0.88
2023-04-17T09:55:31.388Z,0.90
2023-04-17T09:58:03.606Z,0.80
2023-04-17T10:00:32.174Z,0.90
2023-04-17T10:03:01.065Z,0.95
2023-04-17T10:05:32.466Z,1.00
2023-04-17T10:08:02.394Z,1.10
2023-04-17T10:10:34.122Z,0.70
2023-04-17T10:13:04.743Z,0.70
2023-04-17T10:15:34.191Z,0.82
2023-04-17T10:18:20.733Z,0.90
2023-04-17T10:20:49.859Z,1.00
2023-04-17T10:23:31.395Z,0.75
2023-04-17T10:26:45.828Z,0.90
2023-04-17T10:29:14.308Z,0.70
2023-04-17T10:32:19.099Z,0.70
2023-04-17T10:34:47.360Z,0.98
2023-04-17T10:37:16.251Z,1.00
2023-04-17T10:39:57.063Z,0.82
2023-04-17T10:42:26.752Z,1.00
2023-04-17T10:45:01.681Z,1.30
2023-04-17T10:47:34.082Z,0.95
2023-04-17T10:50:05.357Z,1.10
2023-04-17T10:52:40.030Z,1.08
2023-04-17T10:55:11.153Z,1.00
2023-04-17T10:57:56.908Z,1.02
2023-04-17T11:00:37.608Z,0.90
2023-04-17T11:03:07.516Z,0.90
2023-04-17T11:05:36.651Z,1.08
2023-04-17T11:08:04.891Z,0.95
2023-04-17T11:10:37.692Z,1.20
2023-04-17T11:13:06.143Z,0.90
2023-04-17T11:15:35.951Z,0.90
2023-04-17T11:18:05.089Z,1.10
2023-04-17T11:20:34.702Z,0.85
2023-04-17T11:23:05.175Z,0.80
2023-04-17T11:25:35.242Z,0.80
2023-04-17T11:28:06.181Z,0.90
2023-04-17T11:30:35.902Z,0.90
2023-04-17T11:33:05.599Z,0.70
2023-04-17T11:35:36.493Z,0.70
2023-04-17T11:38:17.815Z,0.70
2023-04-17T11:43:17.274Z,0.88
2023-04-17T11:45:46.835Z,0.70
2023-04-17T11:48:16.161Z,0.63
2023-04-17T11:50:45.913Z,0.75
2023-04-17T11:53:16.396Z,0.82
2023-04-17T11:55:45.132Z,1.10
2023-04-17T11:58:15.673Z,0.82
2023-04-17T12:00:43.939Z,0.90
2023-04-17T12:03:35.086Z,0.90
2023-04-17T12:08:32.878Z,1.05
2023-04-17T12:11:01.110Z,0.88
2023-04-17T12:13:32.689Z,0.90
2023-04-17T12:16:01.128Z,1.00
2023-04-17T12:18:29.329Z,0.80
2023-04-17T12:20:57.500Z,0.82
2023-04-17T12:23:25.734Z,1.00
2023-04-17T12:25:53.878Z,0.75
2023-04-17T12:28:22.185Z,0.93
2023-04-17T12:30:51.850Z,0.90
2023-04-17T12:33:20.028Z,1.05
2023-04-17T12:35:48.331Z,0.75
2023-04-17T12:38:16.804Z,1.20
2023-04-17T12:40:45.917Z,1.17
2023-04-17T12:43:14.570Z,1.05
2023-04-17T12:45:45.789Z,0.95
2023-04-17T12:48:16.273Z,0.80
2023-04-17T12:50:44.467Z,0.82
2023-04-17T12:53:14.205Z,1.10
2023-04-17T12:55:43.904Z,1.17
2023-04-17T12:58:14.259Z,0.90
2023-04-17T13:00:44.423Z,1.20
2023-04-17T13:03:13.158Z,1.07
2023-04-17T13:05:42.878Z,1.00
2023-04-17T13:08:15.020Z,0.93
2023-04-17T13:10:43.461Z,1.10
2023-04-17T13:13:12.080Z,1.10
2023-04-17T13:15:40.441Z,1.17
2023-04-17T13:18:10.581Z,0.93
2023-04-17T13:20:38.844Z,1.00
2023-04-17T13:23:08.391Z,0.88
2023-04-17T13:25:36.893Z,0.80
2023-04-17T13:28:05.277Z,1.00
2023-04-17T13:30:35.347Z,0.90
2023-04-17T13:33:03.661Z,0.97
2023-04-17T13:35:31.944Z,1.00
2023-04-17T13:38:02.317Z,1.00
2023-04-17T13:40:31.987Z,1.00
2023-04-17T13:43:00.474Z,0.90
2023-04-17T13:45:28.785Z,0.80
2023-04-17T13:47:56.999Z,0.95
2023-04-17T13:50:25.207Z,0.90
2023-04-17T13:52:53.372Z,1.30
2023-04-17T13:55:21.534Z,0.95
2023-04-17T13:57:51.196Z,0.90
2023-04-17T14:00:21.005Z,1.00
2023-04-17T14:02:49.443Z,1.00
2023-04-17T14:05:17.863Z,1.15
2023-04-17T14:07:46.243Z,1.10
2023-04-17T14:10:14.472Z,0.90
2023-04-17T14:12:42.705Z,1.00
2023-04-17T14:15:13.182Z,1.02
2023-04-17T14:17:43.344Z,1.30
2023-04-17T14:20:12.765Z,0.90
2023-04-17T14:22:40.913Z,1.10
2023-04-17T14:25:09.679Z,1.40
2023-04-17T14:27:37.834Z,1.10
2023-04-17T14:30:07.100Z,1.27
2023-04-17T14:32:38.489Z,1.42
2023-04-17T14:35:07.665Z,1.40
2023-04-17T14:37:35.851Z,1.40
2023-04-17T14:40:04.844Z,1.30
2023-04-17T14:42:40.755Z,1.23
2023-04-17T14:45:15.479Z,1.20
2023-04-17T14:47:45.167Z,1.30
2023-04-17T14:50:13.619Z,1.10
2023-04-17T14:52:41.820Z,1.40
2023-04-17T14:55:11.339Z,1.27
2023-04-17T14:57:40.214Z,1.13
2023-04-17T15:00:09.823Z,1.10
2023-04-17T15:02:39.550Z,1.10
2023-04-17T15:05:10.363Z,1.20
2023-04-17T15:07:38.757Z,1.20
2023-04-17T15:10:07.837Z,1.10
2023-04-17T15:12:36.283Z,1.10
2023-04-17T15:15:04.694Z,1.05
2023-04-17T15:17:32.936Z,1.20
2023-04-17T15:20:01.233Z,1.73
2023-04-17T15:22:30.793Z,1.55
2023-04-17T15:24:59.006Z,1.38
2023-04-17T15:27:27.266Z,1.38
2023-04-17T15:29:55.438Z,1.52
2023-04-17T15:32:23.678Z,1.60
2023-04-17T15:34:52.156Z,1.80
2023-04-17T15:37:20.385Z,1.70
2023-04-17T15:39:50.277Z,1.60
2023-04-17T15:42:18.444Z,1.67
2023-04-17T15:44:46.742Z,1.70
2023-04-17T15:47:14.923Z,1.85
2023-04-17T15:49:43.378Z,2.00
2023-04-17T15:52:11.564Z,1.60
2023-04-17T15:54:39.749Z,1.90
2023-04-17T15:57:09.430Z,1.73
2023-04-17T15:59:37.864Z,1.70
2023-04-17T16:02:06.223Z,1.70
2023-04-17T16:04:34.514Z,1.65
2023-04-17T16:07:02.780Z,1.70
2023-04-17T16:09:30.972Z,1.40
2023-04-17T16:11:59.419Z,1.38
2023-04-17T16:14:28.977Z,1.73
2023-04-17T16:16:59.652Z,1.30
2023-04-17T16:19:27.912Z,1.70
2023-04-17T16:21:56.918Z,1.50
2023-04-17T16:24:25.626Z,1.55
2023-04-17T16:26:57.232Z,1.40
2023-04-17T16:29:25.591Z,1.38
2023-04-17T16:31:56.499Z,1.50
2023-04-17T16:34:24.749Z,1.30
2023-04-17T16:36:52.967Z,1.40
2023-04-17T16:39:21.490Z,1.50
2023-04-17T16:41:52.186Z,1.20
2023-04-17T16:44:20.435Z,1.30
2023-04-17T16:49:21.184Z,2.00
2023-04-17T16:51:49.599Z,2.00
2023-04-17T16:54:19.390Z,2.20
2023-04-17T16:56:48.058Z,2.10
2023-04-17T16:59:16.651Z,2.25
2023-04-17T17:01:47.009Z,2.60
2023-04-17T17:04:15.307Z,2.50
2023-04-17T17:06:44.924Z,2.10
2023-04-17T17:09:13.521Z,2.15
2023-04-17T17:11:41.931Z,2.22
2023-04-17T17:14:10.248Z,2.03
2023-04-17T17:16:38.707Z,1.75
2023-04-17T17:19:06.963Z,2.15
2023-04-17T17:21:35.068Z,1.92
2023-04-17T17:24:04.963Z,2.00
2023-04-17T17:26:33.312Z,1.88
2023-04-17T17:29:01.461Z,2.22
2023-04-17T17:31:29.672Z,2.17
2023-04-17T17:34:11.897Z,2.05
2023-04-17T17:36:49.286Z,1.85
2023-04-17T17:39:19.104Z,2.05
2023-04-17T17:41:47.472Z,2.03
2023-04-17T17:44:15.935Z,2.22
2023-04-17T17:46:44.281Z,2.30
2023-04-17T17:49:12.475Z,1.92
2023-04-17T17:51:41.841Z,2.47
2023-04-17T17:54:10.135Z,2.50
2023-04-17T17:56:40.000Z,2.65
2023-04-17T17:59:08.634Z,2.65
2023-04-17T18:01:37.163Z,2.45
2023-04-17T18:04:05.952Z,2.60
2023-04-17T18:06:34.288Z,2.33
2023-04-17T18:09:03.698Z,2.67
2023-04-17T18:11:31.855Z,2.50
2023-04-17T18:14:01.724Z,2.67
2023-04-17T18:16:32.716Z,2.72
2023-04-17T18:19:03.594Z,2.28
2023-04-17T18:21:32.098Z,2.35
2023-04-17T18:24:00.438Z,2.60
2023-04-17T18:26:28.661Z,2.47
2023-04-17T18:28:56.870Z,2.60
2023-04-17T18:31:28.263Z,2.78
2023-04-17T18:33:56.555Z,2.70
2023-04-17T18:36:24.759Z,2.47
2023-04-17T18:38:52.924Z,3.00
2023-04-17T18:41:21.489Z,2.53
2023-04-17T18:43:49.705Z,3.00
2023-04-17T18:46:18.354Z,2.90
2023-04-17T18:48:48.073Z,2.80
2023-04-17T18:51:17.485Z,2.80
2023-04-17T18:53:45.748Z,2.80
2023-04-17T18:56:15.163Z,3.38
2023-04-17T18:58:43.565Z,3.33
2023-04-17T19:01:11.898Z,3.28
2023-04-17T19:03:40.433Z,3.22
2023-04-17T19:06:10.298Z,2.83
2023-04-17T19:08:39.550Z,3.15
2023-04-17T19:11:08.020Z,3.10
2023-04-17T19:13:36.284Z,3.33
2023-04-17T19:16:04.556Z,3.20
2023-04-17T19:18:32.760Z,3.10
2023-04-17T19:21:02.081Z,3.13
2023-04-17T19:23:31.663Z,2.90
2023-04-17T19:25:59.916Z,2.90
2023-04-17T19:28:28.526Z,2.95
2023-04-17T19:30:57.930Z,2.72
2023-04-17T19:33:26.157Z,3.42
2023-04-17T19:35:54.380Z,3.22
2023-04-17T19:38:22.701Z,3.25
2023-04-17T19:41:15.025Z,2.95
2023-04-17T19:43:43.511Z,3.10
2023-04-17T19:46:11.980Z,2.72
2023-04-17T19:48:42.207Z,3.22
2023-04-17T19:51:10.569Z,3.35
2023-04-17T19:53:40.514Z,3.28
2023-04-17T19:56:09.709Z,3.05
2023-04-17T19:58:39.946Z,3.35
2023-04-17T20:01:08.371Z,3.40
2023-04-17T20:03:38.416Z,3.33
2023-04-17T20:06:07.052Z,3.50
2023-04-17T20:08:36.457Z,3.25
2023-04-17T20:11:06.399Z,3.42
2023-04-17T20:13:34.682Z,3.35
2023-04-17T20:16:04.235Z,3.53
2023-04-17T20:18:33.798Z,3.47
2023-04-17T20:21:02.352Z,3.90
2023-04-17T20:23:30.582Z,3.70
2023-04-17T20:25:58.817Z,3.40
2023-04-17T20:28:28.865Z,3.88
2023-04-17T20:30:57.468Z,3.95
2023-04-17T20:33:27.187Z,3.78
2023-04-17T20:35:55.450Z,4.03
2023-04-17T20:38:23.896Z,3.80
2023-04-17T20:40:52.122Z,3.45
2023-04-17T20:43:20.477Z,3.92
2023-04-17T20:45:49.442Z,3.75
2023-04-17T20:48:17.760Z,3.38
2023-04-17T20:50:47.466Z,3.35
2023-04-17T20:53:15.671Z,3.55
2023-04-17T20:55:43.946Z,3.55
2023-04-17T20:58:12.135Z,3.70
2023-04-17T21:00:50.602Z,3.67
2023-04-17T21:03:31.018Z,3.33
2023-04-17T21:06:01.096Z,3.45
2023-04-17T21:08:29.578Z,4.10
2023-04-17T21:10:57.919Z,3.20
2023-04-17T21:13:26.101Z,3.55
2023-04-17T21:15:54.286Z,3.83
2023-04-17T21:18:22.471Z,3.28
2023-04-17T21:20:50.857Z,3.60
2023-04-17T21:23:20.561Z,3.58
2023-04-17T21:25:51.791Z,3.63
2023-04-17T21:28:20.009Z,3.50
2023-04-17T21:30:48.377Z,3.70
2023-04-17T21:33:16.809Z,3.72
2023-04-17T21:35:45.067Z,3.78
2023-04-17T21:38:13.672Z,3.60
2023-04-17T21:40:50.960Z,3.70
2023-04-17T21:43:19.468Z,3.75
2023-04-17T21:45:47.705Z,3.83
2023-04-17T21:48:15.997Z,3.53
2023-04-17T21:50:44.229Z,3.33
2023-04-17T21:53:12.582Z,3.20
2023-04-17T21:55:42.554Z,2.97
2023-04-17T21:58:11.094Z,2.70
2023-04-17T22:00:39.383Z,2.95
2023-04-17T22:03:07.635Z,2.63
2023-04-17T22:05:36.447Z,3.00
2023-04-17T22:08:04.667Z,2.90
2023-04-17T22:10:33.125Z,3.17
2023-04-17T22:13:02.713Z,3.13
2023-04-17T22:15:30.905Z,3.00
2023-04-17T22:17:59.801Z,3.08
2023-04-17T22:20:28.195Z,3.85
2023-04-17T22:22:56.389Z,4.30
2023-04-17T22:25:24.753Z,4.10
2023-04-17T22:27:52.971Z,4.28
2023-04-17T22:30:22.856Z,4.30
2023-04-17T22:32:51.274Z,4.50
2023-04-17T22:35:19.491Z,4.97
2023-04-17T22:37:47.718Z,4.80
2023-04-17T22:40:15.915Z,4.85
2023-04-17T22:42:44.279Z,4.25
2023-04-17T22:45:12.476Z,4.72
2023-04-17T22:47:42.218Z,4.90
2023-04-17T22:50:11.830Z,4.25
2023-04-17T22:52:39.992Z,4.72
2023-04-17T22:55:08.777Z,4.60
2023-04-17T22:57:36.984Z,4.35
2023-04-17T23:00:06.498Z,4.47
2023-04-17T23:02:34.759Z,4.57
2023-04-17T23:05:04.511Z,4.28
2023-04-17T23:07:32.771Z,4.57
2023-04-17T23:10:01.060Z,4.65
2023-04-17T23:12:29.280Z,4.65
2023-04-17T23:14:59.228Z,4.30
2023-04-17T23:17:27.405Z,4.07
2023-04-17T23:19:55.698Z,4.50
2023-04-17T23:22:25.364Z,4.32
2023-04-17T23:24:53.630Z,4.50
2023-04-17T23:27:22.195Z,4.57
2023-04-17T23:29:50.571Z,4.38
2023-04-17T23:32:18.848Z,4.40
2023-04-17T23:34:47.057Z,4.45
2023-04-17T23:37:15.301Z,4.68
2023-04-17T23:39:44.852Z,5.03
2023-04-17T23:42:13.013Z,4.90
2023-04-17T23:44:41.192Z,4.43
2023-04-17T23:47:10.118Z,4.88
2023-04-17T23:49:38.800Z,4.32
2023-04-17T23:52:07.221Z,4.65
2023-04-17T23:54:35.411Z,4.60
2023-04-17T23:57:05.114Z,4.57
2023-04-17T23:59:33.360Z,4.80
